Piesy001 Speed Test Results

        Days  
Piesy001 Piesy001
Share Query AVG Img MAX Img AVG bbc MAX bbc iFrame
  
 
Showing results 1 to 25 of 49 for Username Piesy001 arrow up Only Upload    arrow down Only Download   
Time arrow down ct    arrow up arrow down   Size    Speed ConnectID Provider TID
Tue Jan 10 2017 @ 10:40:09 pm Sydney, AU US arrow 19.6 MB 30.07 Mbps 3.76 MB/s14502134607258Cadence Design historyhz5vyRNKCshare history
Tue Jan 10 2017 @ 10:39:55 pm Sydney, AU US arrow 47.9 MB 69.78 Mbps 8.72 MB/s14502134607258Cadence Design historyfcd85YNq6share history
Mon Jan 02 2017 @ 11:27:40 pm Sydney, AU US arrow 22.8 MB 30.74 Mbps 3.84 MB/s14502134607258Cadence Design historyBcXlQxT3Rshare history
Mon Jan 02 2017 @ 11:24:16 pm Sydney, AU US arrow 22.8 MB 30.92 Mbps 3.86 MB/s14502134607258Cadence Design historywBd0yWemQshare history
Mon Jan 02 2017 @ 11:23:59 pm Sydney, AU US arrow 59.4 MB 40.31 Mbps 5.04 MB/s14502134607258Cadence Design historyEbak1hmY8share history
Mon Jan 02 2017 @ 11:23:17 pm Sydney, AU US arrow 22.6 MB 31.15 Mbps 3.89 MB/s14502134607258Cadence Design historya2AFYUxyhshare history
Mon Jan 02 2017 @ 11:22:59 pm Sydney, AU US arrow 64.9 MB 44.57 Mbps 5.57 MB/s14502134607258Cadence Design historyeP8CkTFstshare history
Sat Dec 31 2016 @ 10:08:50 pm Sydney, AU US arrow 22.6 MB 30.89 Mbps 3.86 MB/s14502134607258Cadence Design historyXcmA3iTUsshare history
Sat Dec 31 2016 @ 10:08:34 pm Sydney, AU US arrow 65.5 MB 65.96 Mbps 8.24 MB/s14502134607258Cadence Design history526O107Tdshare history
Sat Dec 31 2016 @ 9:37:46 pm Sydney, AU US arrow 22.5 MB 31.1 Mbps 3.89 MB/s14502134607258Cadence Design historyqM209oGmvshare history
Sat Dec 31 2016 @ 9:37:30 pm Sydney, AU US arrow 66.8 MB 66.79 Mbps 8.35 MB/s14502134607258Cadence Design historynBy5RfWPpshare history
Thu Dec 29 2016 @ 4:39:27 am Sydney, AU US arrow 18.6 MB 30.79 Mbps 3.85 MB/s14502134607258Cadence Design history3MVoraGg2share history
Thu Dec 29 2016 @ 4:38:54 am Sydney, AU US arrow 44.4 MB 69.27 Mbps 8.66 MB/s14502134607258Cadence Design history68XQpb2Veshare history
Sat Dec 17 2016 @ 1:12:59 am Sydney, AU AU arrow 23.3 MB 32.8 Mbps 4.1 MB/s5328865588520Optus historyJZQzHyivpshare history
Sat Dec 17 2016 @ 1:12:48 am Sydney, AU AU arrow 47.1 MB 75.13 Mbps 9.39 MB/s5328865588520Optus historyx9J60un7kshare history
Sat Nov 12 2016 @ 9:05:22 am Sydney, AU AU arrow 23.1 MB 33.09 Mbps 4.14 MB/s1052303007Optus historyAhsLHQv7Tshare history
Sat Nov 12 2016 @ 9:05:11 am Sydney, AU AU arrow 70.5 MB 77.12 Mbps 9.64 MB/s1052303007Optus historyst8koeA56share history
Sun Oct 23 2016 @ 4:57:36 am Sydney, AU AU arrow 23 MB 31.43 Mbps 3.93 MB/s1052303007Optus historyAyqeBwa00share history
Sun Oct 23 2016 @ 4:57:24 am Sydney, AU AU arrow 67.8 MB 66.91 Mbps 8.36 MB/s1052303007Optus historyDah9EAyk7share history
Sun Oct 23 2016 @ 4:56:49 am Sydney, AU AU arrow 23.1 MB 30.56 Mbps 3.82 MB/s1052303007Optus historyG8sRQvqVzshare history
Sun Oct 23 2016 @ 4:56:37 am Sydney, AU AU arrow 67.5 MB 70.74 Mbps 8.84 MB/s1052303007Optus history9OnkViWLTshare history
Tue Oct 11 2016 @ 11:42:02 pm Sydney, AU AU arrow 23.3 MB 31.24 Mbps 3.91 MB/s1052303007Optus historyKNPDlTvVMshare history
Tue Oct 11 2016 @ 11:41:51 pm Sydney, AU AU arrow 65.4 MB 78.59 Mbps 9.82 MB/s1052303007Optus historyWqIfh3VFkshare history
Sat Oct 08 2016 @ 5:20:33 am Sydney, AU AU arrow 22.9 MB 32.73 Mbps 4.09 MB/s1052303007Optus historyQ65wvOzM0share history
Sat Oct 08 2016 @ 5:20:22 am Sydney, AU AU arrow 64.1 MB 71.84 Mbps 8.98 MB/s1052303007Optus historyQ2AYf0ToCshare history
  
Displaying Internet Speed Test results for Username Piesy001
Speed Test Version 15.9
© 2016 TestMy Net LLC - TestMy.net - Terms & Privacy - Mobile